首页
METAR-TAF:

METAR-TAF

机场 :

Air Force Base

Langley, 弗吉尼亚州, 美国

纬度: 37-05N, 经度: 076-21W, 海拔: 3米

当前天气观测

该预报发布于1小时和8分钟前的18:56 UTC
风速12节,风向东北,有时为17节阵风
温度 1°C
湿度 59%
气压 1032 hPa
能見度: 16.1公里
散云层高于3000英尺

METAR: KLFI 211856Z 04012G17KT 10SM SCT030 01/M06 A3048 RMK AO2A SLP328 T00081061 $

时间: 15:04 (20:04 UTC)

预报

该预报发布于2小时和4分钟前的18:00 UTC
预报有效从21日的 18点(UTC)到 22日的 24点(UTC)
风速20节,风向
能见度10公里或以上
散云层高于3000英尺
成为
从 22日的 00点(UTC)到 22日的 01点(UTC)
风速9节,风向
能见度10公里或以上
天空无云

TAF: KLFI 211800Z 2118/2224 01020KT 9999 SCT030 QNH3047INS BECMG 2200/2201 01009KT 9999 SKC QNH3033INS TX01/2120Z TN00/2214Z

超过4000个机场的气象观测和天气预报(METAR&TAF报告)。

可查询的气象台以黄色和红色小点在地图上表示。

将鼠标移到小点上方,可查看气象台名称。

然后点击查看天气观测和预报。

如需切换地图:点击带黑十字的绿色按钮放大地图;点击带横线的绿色按钮缩小地图;或者点击绿色箭头查看邻近地区的地图。


METAR-TAF: